createdAt,value
2018-07-04T00:02:36.817Z,3.73
2018-07-04T00:05:17.171Z,5.40
2018-07-04T00:07:57.586Z,5.77
2018-07-04T00:10:37.876Z,5.57
2018-07-04T00:13:18.246Z,7.03
2018-07-04T00:15:58.543Z,5.50
2018-07-04T00:18:38.753Z,5.27
2018-07-04T00:21:18.971Z,6.17
2018-07-04T00:23:59.263Z,6.80
2018-07-04T00:26:39.502Z,4.53
2018-07-04T00:29:20.043Z,6.00
2018-07-04T00:32:00.515Z,6.30
2018-07-04T00:34:40.822Z,6.13
2018-07-04T00:37:21.320Z,5.23
2018-07-04T00:40:01.801Z,7.30
2018-07-04T00:42:42.194Z,4.53
2018-07-04T00:45:22.666Z,5.53
2018-07-04T00:48:06.859Z,4.47
2018-07-04T00:50:49.462Z,6.60
2018-07-04T00:56:58.670Z,4.77
2018-07-04T00:59:47.877Z,5.93
2018-07-04T01:02:30.019Z,6.77
2018-07-04T01:05:49.247Z,5.77
2018-07-04T01:12:05.226Z,7.10
2018-07-04T01:14:45.669Z,5.23
2018-07-04T01:17:25.862Z,5.97
2018-07-04T01:20:06.268Z,4.87
2018-07-04T01:22:46.487Z,5.00
2018-07-04T01:25:26.810Z,5.03
2018-07-04T01:28:06.965Z,5.27
2018-07-04T01:30:47.407Z,5.90
2018-07-04T01:33:27.692Z,5.67
2018-07-04T01:36:07.945Z,5.47
2018-07-04T01:38:48.262Z,6.77
2018-07-04T01:41:28.585Z,8.30
2018-07-04T01:44:09.107Z,5.43
2018-07-04T01:46:49.336Z,6.40
2018-07-04T01:49:29.507Z,7.40
2018-07-04T01:52:09.899Z,6.13
2018-07-04T01:54:50.294Z,5.77
2018-07-04T01:57:30.696Z,5.10
2018-07-04T02:00:04.933Z,5.37
2018-07-04T02:02:45.194Z,7.50
2018-07-04T02:05:25.480Z,7.40
2018-07-04T02:08:05.969Z,7.63
2018-07-04T02:10:46.281Z,7.17
2018-07-04T02:13:26.816Z,6.80
2018-07-04T02:16:07.310Z,9.13
2018-07-04T02:18:47.706Z,6.60
2018-07-04T02:22:31.234Z,7.77
2018-07-04T02:25:11.372Z,8.97
2018-07-04T02:27:51.847Z,8.40
2018-07-04T02:30:32.276Z,6.40
2018-07-04T02:33:12.723Z,6.90
2018-07-04T02:35:53.113Z,5.90
2018-07-04T02:38:33.556Z,8.63
2018-07-04T02:41:13.991Z,6.10
2018-07-04T02:43:55.695Z,9.50
2018-07-04T02:46:38.826Z,6.63
2018-07-04T02:49:19.965Z,8.70
2018-07-04T02:52:00.323Z,10.43
2018-07-04T02:54:40.825Z,7.37
2018-07-04T02:57:21.134Z,7.60
2018-07-04T03:00:01.435Z,7.50
2018-07-04T03:02:35.675Z,7.57
2018-07-04T03:05:17.271Z,7.00
2018-07-04T03:07:57.817Z,7.77
2018-07-04T03:10:38.058Z,7.77
2018-07-04T03:13:18.235Z,7.33
2018-07-04T03:15:58.794Z,7.23
2018-07-04T03:18:38.914Z,7.73
2018-07-04T03:21:19.060Z,8.27
2018-07-04T03:23:59.488Z,8.53
2018-07-04T03:26:39.911Z,7.37
2018-07-04T03:29:20.067Z,7.80
2018-07-04T03:32:00.223Z,8.60
2018-07-04T03:34:40.548Z,7.67
2018-07-04T03:37:20.718Z,8.13
2018-07-04T03:40:01.026Z,8.97
2018-07-04T03:42:41.344Z,7.50
2018-07-04T03:45:21.861Z,7.87
2018-07-04T03:48:02.078Z,9.37
2018-07-04T03:50:42.389Z,8.93
2018-07-04T03:53:22.808Z,8.87
2018-07-04T03:56:03.269Z,9.10
2018-07-04T03:58:43.589Z,8.17
2018-07-04T04:01:23.971Z,9.93
2018-07-04T04:04:04.956Z,8.20
2018-07-04T04:06:45.298Z,8.53
2018-07-04T04:09:25.593Z,9.63
2018-07-04T04:12:06.064Z,7.77
2018-07-04T04:14:46.261Z,8.33
2018-07-04T04:17:26.673Z,8.13
2018-07-04T04:20:07.583Z,7.40
2018-07-04T04:22:48.360Z,7.83
2018-07-04T04:25:28.771Z,7.87
2018-07-04T04:28:09.129Z,7.77
2018-07-04T04:30:49.562Z,8.43
2018-07-04T04:33:30.108Z,7.53
2018-07-04T04:36:10.581Z,9.40
2018-07-04T04:38:50.744Z,8.90
2018-07-04T04:41:30.989Z,9.00
2018-07-04T04:44:11.307Z,9.93
2018-07-04T04:46:51.631Z,7.60
2018-07-04T04:49:25.942Z,9.03
2018-07-04T04:52:06.213Z,10.50
2018-07-04T04:54:46.414Z,8.60
2018-07-04T04:57:26.810Z,10.33
2018-07-04T05:00:07.408Z,11.63
2018-07-04T05:02:48.699Z,9.37
2018-07-04T05:05:28.839Z,8.90
2018-07-04T05:08:09.189Z,10.07
2018-07-04T05:10:49.462Z,9.80
2018-07-04T05:13:30.114Z,9.23
2018-07-04T05:16:10.586Z,9.53
2018-07-04T05:18:45.579Z,9.97
2018-07-04T05:21:25.973Z,8.53
2018-07-04T05:24:06.256Z,9.37
2018-07-04T05:26:46.676Z,11.00
2018-07-04T05:29:27.166Z,9.13
2018-07-04T05:32:07.419Z,10.37
2018-07-04T05:34:47.761Z,10.13
2018-07-04T05:37:28.024Z,8.93
2018-07-04T05:40:08.459Z,10.30
2018-07-04T05:42:49.245Z,9.40
2018-07-04T05:45:29.734Z,10.97
2018-07-04T05:48:10.166Z,9.43
2018-07-04T05:50:50.571Z,11.27
2018-07-04T05:53:31.033Z,11.83
2018-07-04T05:56:11.523Z,11.63
2018-07-04T05:58:52.069Z,10.33
2018-07-04T06:01:32.570Z,11.90
2018-07-04T06:04:13.010Z,11.07
2018-07-04T06:06:53.281Z,10.97
2018-07-04T06:09:33.554Z,12.50
2018-07-04T06:12:13.969Z,14.43
2018-07-04T06:14:54.346Z,11.13
2018-07-04T06:17:34.848Z,10.47
2018-07-04T06:20:15.080Z,10.07
2018-07-04T06:22:56.180Z,10.87
2018-07-04T06:25:36.437Z,12.30
2018-07-04T06:28:16.753Z,12.20
2018-07-04T06:30:57.908Z,11.07
2018-07-04T06:33:38.420Z,12.37
2018-07-04T06:36:18.763Z,12.07
2018-07-04T06:38:46.931Z,13.07
2018-07-04T06:41:14.826Z,14.20
2018-07-04T06:43:42.780Z,12.77
2018-07-04T06:46:10.700Z,12.80
2018-07-04T06:48:38.648Z,17.03
2018-07-04T06:51:06.573Z,13.10
2018-07-04T06:53:34.506Z,13.27
2018-07-04T06:56:02.439Z,15.80
2018-07-04T06:58:30.367Z,15.23
2018-07-04T07:00:58.304Z,13.33
2018-07-04T07:03:38.588Z,14.90
2018-07-04T07:06:18.753Z,15.37
2018-07-04T07:08:59.142Z,13.67
2018-07-04T07:11:39.428Z,14.03
2018-07-04T07:14:19.595Z,13.60
2018-07-04T07:16:59.931Z,13.33
2018-07-04T07:19:40.208Z,13.87
2018-07-04T07:22:20.360Z,13.00
2018-07-04T07:25:00.673Z,13.37
2018-07-04T07:27:40.979Z,13.37
2018-07-04T07:30:21.313Z,14.03
2018-07-04T07:33:01.576Z,13.63
2018-07-04T07:35:41.821Z,14.37
2018-07-04T07:38:22.099Z,17.43
2018-07-04T07:40:56.161Z,14.37
2018-07-04T07:43:36.452Z,13.27
2018-07-04T07:46:16.750Z,13.77
2018-07-04T07:48:57.216Z,13.67
2018-07-04T07:51:37.481Z,17.57
2018-07-04T07:54:18.058Z,15.47
2018-07-04T07:56:58.229Z,21.23
2018-07-04T07:59:38.530Z,15.37
2018-07-04T08:02:19.195Z,14.67
2018-07-04T08:04:59.994Z,13.50
2018-07-04T08:07:40.156Z,13.50
2018-07-04T08:10:20.616Z,13.50
2018-07-04T08:13:00.794Z,13.40
2018-07-04T08:15:41.189Z,13.30
2018-07-04T08:18:21.646Z,14.33
2018-07-04T08:21:02.061Z,14.43
2018-07-04T08:23:42.665Z,12.80
2018-07-04T08:26:23.108Z,14.43
2018-07-04T08:29:03.473Z,16.73
2018-07-04T08:31:43.850Z,15.30
2018-07-04T08:34:24.274Z,14.70
2018-07-04T08:37:04.804Z,15.47
2018-07-04T08:39:45.210Z,15.20
2018-07-04T08:42:25.666Z,14.77
2018-07-04T08:45:06.079Z,18.37
2018-07-04T08:47:47.237Z,15.47
2018-07-04T08:50:27.695Z,15.30
2018-07-04T08:53:07.951Z,14.13
2018-07-04T08:55:48.256Z,15.63
2018-07-04T08:58:28.460Z,14.33
2018-07-04T09:01:08.764Z,14.07
2018-07-04T09:03:48.982Z,15.60
2018-07-04T09:06:29.270Z,14.57
2018-07-04T09:09:09.567Z,13.60
2018-07-04T09:11:49.883Z,16.47
2018-07-04T09:14:30.467Z,13.80
2018-07-04T09:17:10.870Z,15.00
2018-07-04T09:19:51.445Z,17.67
2018-07-04T09:22:31.778Z,17.20
2018-07-04T09:25:12.277Z,14.17
2018-07-04T09:27:52.420Z,20.17
2018-07-04T09:30:33.248Z,15.03
2018-07-04T09:33:14.263Z,14.80
2018-07-04T09:35:54.496Z,15.73
2018-07-04T09:38:34.635Z,15.80
2018-07-04T09:41:14.862Z,15.50
2018-07-04T09:43:55.224Z,14.37
2018-07-04T09:46:35.463Z,13.47
2018-07-04T09:49:15.787Z,15.17
2018-07-04T09:51:56.255Z,14.03
2018-07-04T09:54:36.606Z,15.50
2018-07-04T09:57:17.673Z,16.83
2018-07-04T09:59:58.124Z,15.23
2018-07-04T10:02:38.489Z,12.87
2018-07-04T10:05:18.755Z,15.90
2018-07-04T10:07:59.066Z,16.77
2018-07-04T10:10:39.307Z,13.47
2018-07-04T10:13:20.324Z,14.33
2018-07-04T10:18:50.490Z,16.43
2018-07-04T10:21:30.880Z,20.83
2018-07-04T10:24:11.065Z,14.03
2018-07-04T10:26:51.554Z,16.03
2018-07-04T10:29:32.484Z,16.00
2018-07-04T10:32:12.845Z,19.83
2018-07-04T10:34:53.048Z,16.30
2018-07-04T10:37:33.405Z,16.00
2018-07-04T10:40:13.590Z,18.83
2018-07-04T10:42:53.901Z,17.93
2018-07-04T10:45:34.452Z,17.07
2018-07-04T10:48:14.851Z,14.15
2018-07-04T10:50:55.052Z,17.52
2018-07-04T10:53:35.211Z,14.37
2018-07-04T10:56:15.679Z,18.25
2018-07-04T10:58:55.884Z,18.23
2018-07-04T11:01:36.484Z,16.37
2018-07-04T11:04:16.873Z,16.00
2018-07-04T11:06:57.058Z,16.57
2018-07-04T11:09:37.897Z,16.20
2018-07-04T11:12:18.158Z,15.57
2018-07-04T11:14:58.568Z,15.07
2018-07-04T11:17:39.075Z,13.43
2018-07-04T11:20:19.348Z,17.27
2018-07-04T11:22:59.636Z,15.70
2018-07-04T11:25:40.075Z,15.60
2018-07-04T11:28:20.565Z,17.75
2018-07-04T11:31:00.761Z,13.57
2018-07-04T11:33:41.215Z,14.05
2018-07-04T11:36:21.492Z,12.50
2018-07-04T11:39:02.012Z,12.63
2018-07-04T11:41:42.059Z,11.85
2018-07-04T11:44:22.223Z,14.50
2018-07-04T11:46:50.164Z,12.78
2018-07-04T11:49:18.083Z,11.73
2018-07-04T11:51:46.027Z,14.27
2018-07-04T11:54:13.976Z,13.75
2018-07-04T11:56:41.920Z,17.05
2018-07-04T11:59:09.844Z,17.92
2018-07-04T12:01:37.824Z,13.43
2018-07-04T12:04:17.968Z,15.43
2018-07-04T12:06:58.368Z,18.10
2018-07-04T12:09:26.296Z,15.70
2018-07-04T12:11:54.209Z,12.93
2018-07-04T12:14:22.307Z,13.75
2018-07-04T12:16:50.236Z,13.98
2018-07-04T12:19:18.155Z,10.58
2018-07-04T12:21:46.083Z,13.25
2018-07-04T12:24:14.137Z,11.60
2018-07-04T12:26:42.249Z,13.95
2018-07-04T12:29:11.005Z,11.97
2018-07-04T12:31:39.547Z,12.18
2018-07-04T12:34:07.480Z,9.05
2018-07-04T12:36:35.837Z,10.30
2018-07-04T12:39:04.836Z,12.85
2018-07-04T12:41:32.780Z,11.33
2018-07-04T12:44:00.701Z,15.98
2018-07-04T12:46:28.924Z,13.03
2018-07-04T12:49:04.617Z,11.97
2018-07-04T12:51:33.854Z,9.23
2018-07-04T12:54:07.163Z,14.23
2018-07-04T12:56:47.207Z,13.45
2018-07-04T12:59:27.815Z,15.23
2018-07-04T13:02:08.166Z,13.48
2018-07-04T13:04:48.554Z,10.15
2018-07-04T13:07:28.886Z,13.05
2018-07-04T13:10:09.110Z,9.93
2018-07-04T13:12:49.425Z,11.40
2018-07-04T13:15:29.620Z,12.20
2018-07-04T13:18:09.868Z,9.83
2018-07-04T13:20:50.222Z,9.88
2018-07-04T13:23:30.812Z,10.50
2018-07-04T13:26:05.057Z,13.90
2018-07-04T13:28:45.526Z,10.35
2018-07-04T13:31:25.941Z,11.78
2018-07-04T13:34:06.238Z,10.30
2018-07-04T13:36:46.464Z,13.93
2018-07-04T13:39:26.760Z,9.70
2018-07-04T13:42:06.945Z,13.98
2018-07-04T13:44:47.267Z,8.85
2018-07-04T13:47:27.636Z,10.72
2018-07-04T13:50:08.019Z,12.65
2018-07-04T13:52:48.476Z,11.35
2018-07-04T13:55:28.869Z,12.43
2018-07-04T13:58:09.146Z,12.85
2018-07-04T14:00:49.330Z,10.90
2018-07-04T14:03:29.474Z,11.60
2018-07-04T14:06:09.715Z,9.98
2018-07-04T14:08:50.054Z,10.70
2018-07-04T14:11:30.743Z,14.40
2018-07-04T14:14:11.397Z,10.68
2018-07-04T14:16:51.822Z,9.95
2018-07-04T14:19:32.170Z,9.23
2018-07-04T14:22:12.464Z,11.57
2018-07-04T14:24:52.795Z,12.65
2018-07-04T14:27:33.192Z,12.75
2018-07-04T14:30:13.549Z,11.15
2018-07-04T14:32:53.889Z,7.83
2018-07-04T14:35:34.095Z,9.35
2018-07-04T14:38:14.447Z,12.10
2018-07-04T14:40:54.705Z,10.18
2018-07-04T14:43:34.990Z,7.70
2018-07-04T14:46:15.244Z,10.28
2018-07-04T14:48:55.406Z,10.48
2018-07-04T14:51:35.715Z,8.48
2018-07-04T14:54:16.484Z,11.05
2018-07-04T14:56:57.643Z,10.30
2018-07-04T14:59:38.326Z,16.93
2018-07-04T15:02:18.633Z,6.62
2018-07-04T15:04:58.891Z,8.50
2018-07-04T15:07:39.329Z,8.53
2018-07-04T15:10:19.469Z,7.00
2018-07-04T15:12:59.714Z,6.80
2018-07-04T15:15:40.029Z,9.85
2018-07-04T15:18:20.159Z,6.92
2018-07-04T15:20:54.471Z,7.10
2018-07-04T15:23:34.607Z,9.78
2018-07-04T15:26:14.704Z,8.95
2018-07-04T15:28:54.950Z,11.70
2018-07-04T15:31:35.300Z,8.18
2018-07-04T15:34:15.407Z,8.08
2018-07-04T15:36:55.621Z,10.13
2018-07-04T15:39:35.918Z,7.85
2018-07-04T15:42:16.379Z,9.63
2018-07-04T15:44:56.842Z,10.15
2018-07-04T15:47:37.092Z,8.40
2018-07-04T15:50:17.449Z,7.25
2018-07-04T15:52:57.718Z,13.25
2018-07-04T15:55:37.894Z,8.78
2018-07-04T15:58:18.212Z,9.50
2018-07-04T16:00:58.686Z,11.18
2018-07-04T16:03:39.081Z,6.30
2018-07-04T16:06:19.446Z,7.70
2018-07-04T16:08:59.798Z,6.62
2018-07-04T16:11:40.143Z,7.08
2018-07-04T16:14:21.035Z,7.67
2018-07-04T16:17:02.093Z,6.17
2018-07-04T16:19:42.509Z,6.60
2018-07-04T16:22:22.788Z,6.90
2018-07-04T16:25:03.293Z,8.33
2018-07-04T16:27:43.647Z,6.12
2018-07-04T16:30:23.960Z,6.05
2018-07-04T16:33:04.139Z,6.83
2018-07-04T16:35:44.320Z,9.38
2018-07-04T16:38:24.710Z,5.90
2018-07-04T16:41:05.014Z,7.10
2018-07-04T16:43:45.641Z,9.00
2018-07-04T16:46:20.066Z,6.33
2018-07-04T16:49:00.419Z,9.93
2018-07-04T16:51:40.511Z,6.70
2018-07-04T16:54:20.971Z,8.23
2018-07-04T16:57:01.254Z,9.13
2018-07-04T16:59:41.554Z,9.10
2018-07-04T17:02:21.973Z,11.63
2018-07-04T17:05:02.141Z,7.85
2018-07-04T17:07:42.528Z,10.55
2018-07-04T17:10:16.851Z,8.53
2018-07-04T17:12:57.143Z,9.28
2018-07-04T17:15:37.468Z,8.78
2018-07-04T17:18:18.018Z,8.50
2018-07-04T17:20:58.993Z,9.53
2018-07-04T17:23:39.228Z,12.25
2018-07-04T17:26:19.615Z,14.55
2018-07-04T17:29:00.138Z,12.47
2018-07-04T17:31:40.513Z,12.10
2018-07-04T17:34:20.696Z,10.30
2018-07-04T17:37:01.235Z,13.00
2018-07-04T17:39:35.608Z,13.43
2018-07-04T17:42:15.878Z,12.03
2018-07-04T17:44:56.022Z,15.38
2018-07-04T17:47:36.365Z,12.20
2018-07-04T17:50:16.482Z,9.48
2018-07-04T17:52:57.118Z,9.53
2018-07-04T17:55:37.525Z,10.53
2018-07-04T17:58:54.224Z,10.90
2018-07-04T18:01:30.067Z,11.73
2018-07-04T18:07:46.197Z,10.65
2018-07-04T18:10:27.018Z,9.28
2018-07-04T18:13:30.722Z,12.13
2018-07-04T18:16:11.499Z,12.33
2018-07-04T18:18:51.976Z,6.83
2018-07-04T18:21:32.662Z,10.38
2018-07-04T18:24:14.350Z,9.25
2018-07-04T18:26:54.650Z,10.55
2018-07-04T18:29:29.162Z,12.33
2018-07-04T18:32:10.043Z,12.05
2018-07-04T18:34:50.676Z,10.60
2018-07-04T18:37:30.981Z,11.75
2018-07-04T18:40:11.766Z,9.58
2018-07-04T18:42:52.151Z,11.90
2018-07-04T18:45:32.444Z,10.60
2018-07-04T18:48:13.001Z,8.75
2018-07-04T18:50:53.188Z,7.95
2018-07-04T18:53:33.891Z,10.60
2018-07-04T18:56:16.199Z,5.77
2018-07-04T18:58:56.776Z,12.68
2018-07-04T19:01:37.594Z,8.43
2018-07-04T19:04:18.596Z,9.78
2018-07-04T19:06:58.907Z,10.60
2018-07-04T19:09:39.251Z,13.28
2018-07-04T19:12:19.595Z,10.15
2018-07-04T19:15:00.120Z,10.87
2018-07-04T19:17:40.262Z,11.10
2018-07-04T19:20:21.269Z,8.68
2018-07-04T19:23:01.581Z,7.43
2018-07-04T19:25:41.993Z,9.30
2018-07-04T19:28:22.541Z,10.77
2018-07-04T19:31:03.612Z,10.20
2018-07-04T19:33:44.135Z,9.73
2018-07-04T19:36:18.391Z,11.03
2018-07-04T19:38:59.045Z,11.50
2018-07-04T19:41:39.719Z,10.03
2018-07-04T19:44:20.368Z,9.17
2018-07-04T19:47:01.170Z,10.53
2018-07-04T19:49:41.551Z,15.10
2018-07-04T19:52:21.928Z,7.77
2018-07-04T19:55:02.318Z,9.00
2018-07-04T19:57:42.719Z,10.40
2018-07-04T20:00:23.253Z,8.07
2018-07-04T20:03:03.537Z,8.33
2018-07-04T20:05:43.985Z,9.40
2018-07-04T20:08:24.150Z,8.37
2018-07-04T20:11:04.505Z,9.73
2018-07-04T20:13:44.827Z,10.80
2018-07-04T20:16:25.312Z,6.60
2018-07-04T20:19:05.839Z,10.57
2018-07-04T20:21:46.058Z,8.07
2018-07-04T20:24:20.311Z,10.17
2018-07-04T20:27:15.661Z,5.10
2018-07-04T20:29:56.508Z,7.17
2018-07-04T20:32:37.287Z,9.97
2018-07-04T20:35:17.842Z,8.00
2018-07-04T20:37:58.294Z,7.87
2018-07-04T20:40:38.801Z,10.90
2018-07-04T20:43:19.434Z,11.23
2018-07-04T20:45:59.526Z,13.93
2018-07-04T20:48:40.062Z,9.43
2018-07-04T20:51:20.579Z,12.10
2018-07-04T20:54:01.020Z,10.87
2018-07-04T21:00:24.817Z,7.93
2018-07-04T21:03:05.060Z,11.13
2018-07-04T21:05:45.491Z,8.60
2018-07-04T21:08:26.183Z,9.20
2018-07-04T21:11:06.618Z,6.93
2018-07-04T21:13:47.283Z,7.00
2018-07-04T21:16:28.810Z,6.17
2018-07-04T21:19:03.406Z,10.97
2018-07-04T21:21:43.862Z,7.70
2018-07-04T21:24:24.148Z,8.93
2018-07-04T21:27:04.475Z,9.37
2018-07-04T21:29:45.023Z,6.43
2018-07-04T21:32:25.199Z,8.88
2018-07-04T21:35:05.302Z,7.13
2018-07-04T21:37:45.909Z,6.33
2018-07-04T21:40:20.050Z,8.37
2018-07-04T21:43:00.383Z,11.17
2018-07-04T21:45:40.774Z,7.47
2018-07-04T21:48:21.112Z,7.37
2018-07-04T21:51:01.419Z,7.80
2018-07-04T21:53:41.747Z,8.47
2018-07-04T21:56:21.987Z,9.53
2018-07-04T21:59:02.210Z,12.57
2018-07-04T22:01:42.495Z,11.30
2018-07-04T22:04:22.887Z,11.83
2018-07-04T22:07:03.114Z,10.27
2018-07-04T22:09:43.427Z,10.00
2018-07-04T22:12:23.802Z,10.80
2018-07-04T22:15:04.197Z,10.53
2018-07-04T22:17:44.503Z,11.70
2018-07-04T22:20:24.817Z,12.70
2018-07-04T22:23:05.083Z,18.20
2018-07-04T22:25:45.356Z,21.07
2018-07-04T22:28:25.469Z,25.93
2018-07-04T22:31:05.833Z,29.37
2018-07-04T22:33:46.262Z,28.90
2018-07-04T22:36:26.429Z,29.13
2018-07-04T22:39:06.783Z,30.33
2018-07-04T22:41:46.952Z,29.17
2018-07-04T22:44:27.330Z,26.30
2018-07-04T22:47:07.708Z,26.50
2018-07-04T22:49:48.127Z,25.10
2018-07-04T22:52:28.634Z,25.17
2018-07-04T22:55:09.460Z,25.50
2018-07-04T22:57:49.977Z,27.20
2018-07-04T23:00:30.337Z,25.80
2018-07-04T23:03:10.777Z,26.13
2018-07-04T23:05:51.178Z,24.73
2018-07-04T23:08:31.338Z,25.17
2018-07-04T23:11:11.465Z,23.63
2018-07-04T23:13:51.888Z,20.90
2018-07-04T23:16:32.302Z,20.43
2018-07-04T23:19:12.682Z,20.67
2018-07-04T23:21:53.872Z,18.73
2018-07-04T23:24:33.945Z,20.00
2018-07-04T23:27:14.341Z,19.10
2018-07-04T23:29:54.739Z,18.40
2018-07-04T23:32:35.172Z,18.43
2018-07-04T23:35:15.327Z,18.73
2018-07-04T23:37:55.454Z,18.90
2018-07-04T23:40:35.894Z,19.07
2018-07-04T23:43:16.268Z,19.67
2018-07-04T23:45:56.700Z,17.87
2018-07-04T23:48:37.155Z,18.33
2018-07-04T23:51:18.096Z,17.77
2018-07-04T23:53:59.130Z,17.10
2018-07-04T23:56:39.279Z,18.27
2018-07-04T23:59:19.634Z,17.40
